Port Columbus International Airport
KCMH : rendu visible

Aérodrome :











RETROUVEZ-NOUS SUR...

 
LOGIN :

S'inscrire | Disclaimer

   EN    FR    IT 

 









Légende :    VFR   VFR Marginal   IFR   IFR Intensif   IFR Très Intensif
Visi : 
Plafond : 
>= 8 km
>= 3000ft
5 à 8 km
1000 à 3000 ft
1500m à 5 km
500 à 1000 ft
800 à 1500m
200 à 500 ft
< 800m
< 200 ft
Symboles :   Orages  Brouillard  Fortes neiges  Fortes précipitations  Vent > 20 kt






- Altitude de l'aérodrome : 815 ft
- Code IATA : CMH


KCMH - Port Columbus International

DERNIER METAR :
  • 222251Z 35004KT 10SM SCT030 BKN200 03/M03 A3012 RMK AO2 SLP205 T00281033

METARs EXPIRÉS :
  • 222151Z 36007KT 10SM FEW035 SCT090 BKN200 04/M03 A3010 RMK AO2 SLP195 T00441028
  • 222051Z 33008KT 10SM SCT033 BKN090 OVC200 05/M02 A3009 RMK AO2 SLP193 T00501022 52010

TAF KCMH
Valide du 22 à 18h jusqu'au 23 à 18h UTC


221733Z 2218/2318 33010KT P6SM BKN025
FM222000 34008KT P6SM SCT025
FM230100 00000KT P6SM FEW250
FM231300 09004KT P6SM SCT120 BKN200



MET'MAP, la Météo Aéronautique d'un coup d'oeil ! - Copyright ORBIFLY Décembre 2007 - Disclaimer

ORBIFLY MET'MAP TEAM :

Programmation & Développement : Alexandra Zaïnal
Conception & Développement : Baudouin d'Aumeries
Co-Programmation & Développement : Marc-Olivier Méhu
Soutien technique & logistique : Manuel Goepfert

Contact : metmap@orbifly.com




SOURCES & CREDITS :

   NOAA       Earth
Advisory